createdAt,value
2018-07-23T00:01:13.910Z,32.00
2018-07-23T00:03:41.143Z,34.30
2018-07-23T00:06:08.395Z,33.98
2018-07-23T00:08:35.684Z,35.38
2018-07-23T00:11:02.983Z,36.20
2018-07-23T00:13:30.239Z,37.00
2018-07-23T00:15:57.476Z,36.95
2018-07-23T00:18:24.708Z,36.33
2018-07-23T00:20:51.947Z,37.85
2018-07-23T00:23:19.268Z,37.42
2018-07-23T00:25:46.483Z,38.35
2018-07-23T00:28:13.712Z,36.93
2018-07-23T00:30:40.958Z,37.98
2018-07-23T00:33:08.199Z,36.98
2018-07-23T00:35:35.423Z,37.58
2018-07-23T00:38:02.669Z,39.33
2018-07-23T00:40:29.935Z,36.60
2018-07-23T00:42:57.194Z,37.35
2018-07-23T00:45:24.418Z,36.68
2018-07-23T00:47:51.683Z,37.17
2018-07-23T00:50:18.947Z,36.85
2018-07-23T00:52:46.358Z,37.65
2018-07-23T00:55:13.580Z,36.25
2018-07-23T00:57:40.822Z,38.75
2018-07-23T01:00:08.078Z,35.92
2018-07-23T01:02:35.363Z,37.42
2018-07-23T01:05:02.640Z,36.75
2018-07-23T01:07:29.901Z,37.05
2018-07-23T01:09:57.164Z,37.60
2018-07-23T01:12:29.000Z,36.80
2018-07-23T01:14:56.258Z,36.03
2018-07-23T01:17:23.499Z,36.15
2018-07-23T01:19:51.224Z,35.88
2018-07-23T01:22:18.512Z,35.92
2018-07-23T01:24:45.763Z,36.23
2018-07-23T01:27:12.982Z,37.83
2018-07-23T01:29:40.223Z,36.68
2018-07-23T01:32:07.442Z,35.55
2018-07-23T01:34:34.772Z,37.17
2018-07-23T01:37:02.200Z,35.48
2018-07-23T01:39:29.528Z,34.67
2018-07-23T01:41:56.761Z,35.10
2018-07-23T01:44:24.012Z,35.70
2018-07-23T01:46:51.322Z,34.48
2018-07-23T01:49:18.549Z,35.03
2018-07-23T01:51:45.843Z,35.95
2018-07-23T01:54:13.082Z,36.58
2018-07-23T01:56:40.359Z,35.30
2018-07-23T01:59:07.611Z,35.55
2018-07-23T02:01:34.931Z,35.30
2018-07-23T02:04:02.217Z,37.42
2018-07-23T02:06:29.485Z,36.42
2018-07-23T02:08:56.757Z,36.28
2018-07-23T02:11:24.019Z,37.33
2018-07-23T02:13:51.292Z,37.67
2018-07-23T02:16:18.525Z,38.70
2018-07-23T02:18:45.796Z,36.88
2018-07-23T02:21:13.007Z,37.08
2018-07-23T02:23:40.247Z,36.90
2018-07-23T02:26:07.559Z,37.38
2018-07-23T02:28:34.799Z,38.63
2018-07-23T02:31:02.039Z,37.73
2018-07-23T02:33:29.296Z,38.48
2018-07-23T02:35:56.577Z,37.90
2018-07-23T02:38:23.823Z,38.02
2018-07-23T02:40:51.162Z,37.42
2018-07-23T02:43:18.416Z,38.25
2018-07-23T02:45:45.674Z,37.13
2018-07-23T02:48:12.938Z,37.53
2018-07-23T02:50:40.462Z,39.10
2018-07-23T02:53:07.703Z,39.58
2018-07-23T02:55:35.024Z,38.00
2018-07-23T02:58:02.296Z,38.92
2018-07-23T03:00:29.559Z,37.83
2018-07-23T03:02:56.847Z,38.33
2018-07-23T03:05:24.102Z,38.17
2018-07-23T03:07:51.347Z,39.73
2018-07-23T03:10:18.693Z,38.98
2018-07-23T03:12:46.028Z,39.25
2018-07-23T03:15:13.435Z,38.13
2018-07-23T03:17:40.727Z,38.48
2018-07-23T03:20:08.008Z,36.63
2018-07-23T03:22:35.323Z,37.48
2018-07-23T03:25:02.744Z,36.83
2018-07-23T03:27:30.014Z,36.65
2018-07-23T03:29:57.274Z,37.08
2018-07-23T03:32:24.523Z,37.25
2018-07-23T03:34:51.782Z,37.70
2018-07-23T03:37:19.011Z,38.15
2018-07-23T03:39:46.289Z,37.80
2018-07-23T03:42:13.591Z,37.75
2018-07-23T03:44:40.823Z,38.28
2018-07-23T03:47:08.079Z,37.58
2018-07-23T03:49:35.385Z,38.80
2018-07-23T03:52:02.671Z,37.63
2018-07-23T03:54:30.036Z,37.78
2018-07-23T03:56:57.286Z,37.83
2018-07-23T03:59:24.551Z,38.38
2018-07-23T04:01:51.807Z,38.78
2018-07-23T04:04:19.113Z,38.50
2018-07-23T04:06:48.003Z,38.58
2018-07-23T04:09:15.356Z,37.65
2018-07-23T04:11:42.806Z,35.98
2018-07-23T04:14:10.164Z,38.55
2018-07-23T04:16:37.447Z,37.98
2018-07-23T04:19:04.836Z,38.53
2018-07-23T04:21:32.082Z,38.60
2018-07-23T04:23:59.322Z,38.30
2018-07-23T04:26:26.579Z,38.60
2018-07-23T04:28:53.811Z,38.58
2018-07-23T04:31:21.076Z,37.83
2018-07-23T04:33:48.496Z,39.33
2018-07-23T04:36:15.755Z,37.70
2018-07-23T04:38:42.989Z,38.53
2018-07-23T04:41:10.232Z,36.85
2018-07-23T04:43:37.513Z,36.98
2018-07-23T04:46:04.921Z,37.33
2018-07-23T04:48:32.433Z,35.75
2018-07-23T04:50:59.694Z,37.30
2018-07-23T04:53:26.973Z,36.83
2018-07-23T04:55:54.208Z,36.95
2018-07-23T04:58:21.426Z,35.70
2018-07-23T05:00:49.765Z,35.88
2018-07-23T05:03:16.995Z,34.48
2018-07-23T05:05:44.251Z,36.98
2018-07-23T05:08:11.502Z,35.33
2018-07-23T05:10:38.746Z,34.03
2018-07-23T05:13:06.012Z,35.10
2018-07-23T05:15:33.254Z,35.45
2018-07-23T05:18:00.459Z,35.65
2018-07-23T05:20:27.711Z,34.73
2018-07-23T05:22:55.282Z,34.33
2018-07-23T05:25:22.551Z,34.33
2018-07-23T05:27:49.827Z,33.67
2018-07-23T05:30:17.064Z,35.73
2018-07-23T05:32:44.309Z,33.38
2018-07-23T05:35:11.569Z,32.10
2018-07-23T05:37:38.948Z,32.00
2018-07-23T05:40:06.447Z,32.45
2018-07-23T05:42:33.756Z,32.93
2018-07-23T05:45:01.000Z,31.60
2018-07-23T05:47:28.272Z,30.92
2018-07-23T05:49:55.539Z,30.92
2018-07-23T05:52:22.871Z,30.90
2018-07-23T05:54:50.137Z,30.12
2018-07-23T05:57:17.374Z,31.37
2018-07-23T05:59:44.628Z,31.02
2018-07-23T06:02:11.884Z,30.62
2018-07-23T06:04:39.111Z,29.95
2018-07-23T06:07:06.387Z,31.75
2018-07-23T06:09:33.642Z,29.92
2018-07-23T06:12:00.952Z,29.82
2018-07-23T06:14:28.183Z,29.37
2018-07-23T06:16:55.519Z,28.07
2018-07-23T06:19:22.835Z,28.27
2018-07-23T06:21:50.126Z,27.80
2018-07-23T06:24:17.503Z,26.42
2018-07-23T06:26:44.819Z,25.92
2018-07-23T06:29:12.096Z,25.40
2018-07-23T06:31:39.497Z,24.12
2018-07-23T06:34:06.827Z,25.37
2018-07-23T06:36:34.187Z,23.85
2018-07-23T06:39:01.452Z,24.23
2018-07-23T06:41:28.716Z,22.67
2018-07-23T06:43:56.010Z,22.50
2018-07-23T06:46:23.274Z,22.30
2018-07-23T06:48:50.564Z,21.37
2018-07-23T06:51:17.924Z,22.22
2018-07-23T06:53:45.241Z,21.68
2018-07-23T06:56:12.498Z,21.68
2018-07-23T06:58:39.728Z,20.72
2018-07-23T07:01:06.952Z,20.92
2018-07-23T07:03:34.193Z,21.42
2018-07-23T07:06:01.589Z,21.75
2018-07-23T07:08:28.851Z,21.37
2018-07-23T07:10:56.330Z,20.97
2018-07-23T07:13:23.559Z,19.82
2018-07-23T07:15:50.844Z,20.72
2018-07-23T07:18:18.084Z,20.08
2018-07-23T07:20:45.364Z,19.70
2018-07-23T07:23:12.611Z,19.80
2018-07-23T07:25:39.900Z,18.50
2018-07-23T07:28:07.195Z,18.52
2018-07-23T07:30:34.443Z,17.35
2018-07-23T07:33:01.700Z,17.37
2018-07-23T07:35:28.923Z,16.90
2018-07-23T07:37:56.226Z,16.90
2018-07-23T07:40:23.504Z,15.88
2018-07-23T07:42:51.027Z,15.93
2018-07-23T07:45:18.267Z,14.58
2018-07-23T07:47:45.679Z,15.43
2018-07-23T07:50:12.964Z,14.65
2018-07-23T07:52:40.247Z,12.98
2018-07-23T07:55:07.532Z,14.15
2018-07-23T07:57:34.870Z,12.98
2018-07-23T08:00:02.147Z,13.08
2018-07-23T08:02:29.446Z,12.85
2018-07-23T08:04:56.697Z,13.58
2018-07-23T08:07:23.919Z,13.00
2018-07-23T08:09:51.166Z,12.75
2018-07-23T08:12:18.450Z,13.08
2018-07-23T08:14:45.718Z,13.45
2018-07-23T08:17:13.020Z,12.65
2018-07-23T08:19:40.303Z,12.68
2018-07-23T08:22:07.576Z,12.10
2018-07-23T08:24:34.811Z,9.53
2018-07-23T08:27:02.137Z,9.80
2018-07-23T08:29:29.783Z,10.40
2018-07-23T08:31:57.154Z,11.90
2018-07-23T08:34:24.321Z,11.38
2018-07-23T08:36:51.611Z,11.60
2018-07-23T08:39:18.871Z,10.35
2018-07-23T08:41:46.073Z,10.88
2018-07-23T08:44:13.385Z,10.93
2018-07-23T08:46:40.660Z,10.08
2018-07-23T08:49:07.918Z,10.03
2018-07-23T08:51:35.131Z,10.72
2018-07-23T08:54:02.412Z,10.15
2018-07-23T08:56:29.699Z,10.98
2018-07-23T08:58:57.020Z,10.88
2018-07-23T09:01:24.275Z,10.10
2018-07-23T09:03:51.495Z,9.83
2018-07-23T09:06:18.734Z,9.90
2018-07-23T09:08:45.973Z,9.58
2018-07-23T09:11:13.216Z,9.30
2018-07-23T09:13:40.515Z,8.30
2018-07-23T09:16:07.819Z,8.35
2018-07-23T09:18:36.008Z,8.60
2018-07-23T09:21:03.252Z,8.00
2018-07-23T09:23:30.497Z,8.15
2018-07-23T09:25:59.415Z,7.90
2018-07-23T09:28:26.719Z,8.05
2018-07-23T09:30:55.012Z,7.70
2018-07-23T09:33:23.411Z,8.90
2018-07-23T09:35:51.468Z,8.55
2018-07-23T09:38:19.652Z,8.73
2018-07-23T09:40:46.911Z,8.88
2018-07-23T09:43:14.220Z,7.97
2018-07-23T09:45:41.871Z,8.13
2018-07-23T09:48:09.102Z,7.97
2018-07-23T09:50:36.417Z,8.48
2018-07-23T09:53:03.655Z,9.20
2018-07-23T09:55:31.044Z,8.33
2018-07-23T09:57:58.287Z,8.98
2018-07-23T10:00:31.323Z,8.13
2018-07-23T10:02:58.668Z,9.08
2018-07-23T10:05:25.944Z,8.58
2018-07-23T10:07:53.192Z,8.10
2018-07-23T10:10:20.827Z,8.60
2018-07-23T10:12:48.177Z,9.25
2018-07-23T10:15:15.823Z,8.78
2018-07-23T10:17:43.178Z,8.03
2018-07-23T10:20:10.431Z,8.30
2018-07-23T10:22:37.648Z,7.62
2018-07-23T10:25:04.928Z,7.70
2018-07-23T10:27:32.307Z,7.42
2018-07-23T10:29:59.635Z,7.10
2018-07-23T10:32:26.910Z,6.75
2018-07-23T10:34:54.211Z,7.08
2018-07-23T10:37:21.505Z,7.35
2018-07-23T10:39:48.760Z,6.65
2018-07-23T10:42:15.987Z,6.78
2018-07-23T10:44:43.250Z,6.80
2018-07-23T10:47:10.546Z,6.90
2018-07-23T10:49:37.896Z,6.97
2018-07-23T10:52:05.181Z,7.08
2018-07-23T10:54:32.463Z,6.53
2018-07-23T10:56:59.811Z,6.37
2018-07-23T10:59:27.055Z,5.37
2018-07-23T11:01:54.327Z,7.22
2018-07-23T11:04:21.740Z,5.12
2018-07-23T11:06:49.145Z,4.92
2018-07-23T11:09:16.492Z,5.08
2018-07-23T11:11:43.779Z,4.25
2018-07-23T11:14:11.149Z,4.42
2018-07-23T11:16:38.447Z,4.22
2018-07-23T11:19:05.789Z,4.53
2018-07-23T11:21:33.036Z,5.20
2018-07-23T11:24:00.365Z,4.70
2018-07-23T11:26:27.696Z,4.58
2018-07-23T11:28:54.926Z,3.72
2018-07-23T11:31:22.175Z,4.15
2018-07-23T11:33:49.419Z,4.50
2018-07-23T11:36:17.167Z,4.40
2018-07-23T11:38:44.449Z,4.10
2018-07-23T11:41:11.709Z,3.90
2018-07-23T11:43:39.039Z,3.00
2018-07-23T11:46:06.605Z,3.20
2018-07-23T11:48:33.920Z,3.60
2018-07-23T11:51:01.175Z,4.08
2018-07-23T11:53:28.449Z,3.70
2018-07-23T11:55:56.353Z,3.42
2018-07-23T11:58:23.576Z,3.60
2018-07-23T12:00:50.842Z,3.33
2018-07-23T12:03:18.060Z,3.10
2018-07-23T12:05:45.355Z,3.15
2018-07-23T12:08:12.641Z,3.20
2018-07-23T12:10:39.899Z,3.20
2018-07-23T12:13:07.161Z,3.00
2018-07-23T12:15:34.521Z,3.10
2018-07-23T12:18:01.782Z,3.00
2018-07-23T12:20:29.243Z,3.20
2018-07-23T12:22:56.523Z,3.30
2018-07-23T12:25:23.767Z,3.80
2018-07-23T12:27:51.280Z,4.00
2018-07-23T12:30:18.653Z,4.28
2018-07-23T12:32:45.916Z,4.53
2018-07-23T12:35:13.253Z,4.87
2018-07-23T12:37:40.615Z,5.70
2018-07-23T12:40:07.855Z,5.58
2018-07-23T12:42:37.451Z,5.95
2018-07-23T12:45:04.859Z,6.55
2018-07-23T12:47:32.196Z,5.95
2018-07-23T12:49:59.373Z,6.10
2018-07-23T12:52:26.890Z,6.30
2018-07-23T12:54:54.523Z,6.37
2018-07-23T12:57:21.793Z,6.55
2018-07-23T12:59:49.103Z,6.00
2018-07-23T13:02:16.363Z,6.15
2018-07-23T13:04:43.590Z,6.00
2018-07-23T13:07:10.886Z,5.80
2018-07-23T13:09:38.128Z,5.87
2018-07-23T13:12:05.391Z,5.78
2018-07-23T13:14:32.751Z,6.00
2018-07-23T13:16:59.976Z,5.85
2018-07-23T13:19:27.213Z,5.62
2018-07-23T13:21:54.470Z,5.15
2018-07-23T13:24:21.709Z,5.60
2018-07-23T13:26:48.949Z,5.65
2018-07-23T13:29:16.277Z,5.83
2018-07-23T13:31:43.619Z,5.80
2018-07-23T13:34:10.863Z,6.33
2018-07-23T13:36:38.128Z,6.08
2018-07-23T13:39:08.107Z,6.50
2018-07-23T13:41:35.460Z,6.10
2018-07-23T13:44:02.798Z,5.85
2018-07-23T13:46:30.033Z,6.50
2018-07-23T13:48:57.246Z,6.53
2018-07-23T13:51:24.591Z,6.25
2018-07-23T13:53:51.835Z,5.83
2018-07-23T13:56:19.091Z,6.05
2018-07-23T13:58:46.304Z,6.40
2018-07-23T14:01:13.596Z,6.72
2018-07-23T14:03:40.839Z,6.22
2018-07-23T14:06:08.483Z,6.75
2018-07-23T14:08:35.723Z,6.78
2018-07-23T14:11:02.963Z,7.17
2018-07-23T14:13:30.266Z,6.95
2018-07-23T14:15:57.522Z,7.10
2018-07-23T14:18:24.819Z,6.78
2018-07-23T14:20:52.107Z,6.67
2018-07-23T14:23:19.424Z,6.95
2018-07-23T14:25:46.634Z,7.30
2018-07-23T14:28:14.025Z,7.33
2018-07-23T14:30:41.359Z,8.10
2018-07-23T14:33:08.624Z,8.30
2018-07-23T14:35:35.915Z,8.43
2018-07-23T14:38:03.323Z,8.55
2018-07-23T14:40:30.599Z,8.53
2018-07-23T14:42:57.877Z,7.85
2018-07-23T14:45:25.121Z,8.48
2018-07-23T14:47:52.347Z,8.33
2018-07-23T14:50:19.626Z,8.58
2018-07-23T14:52:46.869Z,8.48
2018-07-23T14:55:14.296Z,8.78
2018-07-23T14:57:41.580Z,9.00
2018-07-23T15:00:08.836Z,8.45
2018-07-23T15:02:36.095Z,8.38
2018-07-23T15:05:03.480Z,8.00
2018-07-23T15:07:30.719Z,8.68
2018-07-23T15:09:57.960Z,8.95
2018-07-23T15:12:25.235Z,8.65
2018-07-23T15:14:52.508Z,8.30
2018-07-23T15:17:19.747Z,8.70
2018-07-23T15:19:47.273Z,8.40
2018-07-23T15:22:14.494Z,9.18
2018-07-23T15:24:41.768Z,9.50
2018-07-23T15:27:09.031Z,8.85
2018-07-23T15:29:37.224Z,8.65
2018-07-23T15:32:04.447Z,8.80
2018-07-23T15:34:31.820Z,8.25
2018-07-23T15:36:59.043Z,9.05
2018-07-23T15:39:26.287Z,7.97
2018-07-23T15:41:53.506Z,8.23
2018-07-23T15:44:20.936Z,8.58
2018-07-23T15:46:47.952Z,8.18
2018-07-23T15:49:15.219Z,7.95
2018-07-23T15:51:42.449Z,7.65
2018-07-23T15:54:09.739Z,7.92
2018-07-23T15:56:36.956Z,7.50
2018-07-23T15:59:04.176Z,8.45
2018-07-23T16:01:31.403Z,7.90
2018-07-23T16:03:58.931Z,8.10
2018-07-23T16:06:26.143Z,7.37
2018-07-23T16:08:53.732Z,7.75
2018-07-23T16:11:20.974Z,7.72
2018-07-23T16:13:48.256Z,7.97
2018-07-23T16:16:15.480Z,7.87
2018-07-23T16:18:42.699Z,8.13
2018-07-23T16:21:10.334Z,7.90
2018-07-23T16:23:37.598Z,8.08
2018-07-23T16:26:04.922Z,7.60
2018-07-23T16:28:32.167Z,7.83
2018-07-23T16:30:59.388Z,8.13
2018-07-23T16:33:27.057Z,7.92
2018-07-23T16:35:54.259Z,8.00
2018-07-23T16:38:22.168Z,8.30
2018-07-23T16:40:49.471Z,8.53
2018-07-23T16:43:16.916Z,7.70
2018-07-23T16:45:44.206Z,7.20
2018-07-23T16:48:11.487Z,7.08
2018-07-23T16:50:38.694Z,7.55
2018-07-23T16:53:06.318Z,7.75
2018-07-23T16:55:33.605Z,7.20
2018-07-23T16:58:01.100Z,7.65
2018-07-23T17:00:32.047Z,7.05
2018-07-23T17:02:59.286Z,8.38
2018-07-23T17:05:26.576Z,7.58
2018-07-23T17:07:53.818Z,7.50
2018-07-23T17:10:21.083Z,7.75
2018-07-23T17:12:48.355Z,7.78
2018-07-23T17:15:15.972Z,7.20
2018-07-23T17:17:43.324Z,7.30
2018-07-23T17:20:10.688Z,7.50
2018-07-23T17:22:38.007Z,7.55
2018-07-23T17:25:05.327Z,7.70
2018-07-23T17:27:32.570Z,8.00
2018-07-23T17:29:59.826Z,7.78
2018-07-23T17:32:27.122Z,8.23
2018-07-23T17:34:54.398Z,7.40
2018-07-23T17:37:21.698Z,7.37
2018-07-23T17:39:49.075Z,7.42
2018-07-23T17:42:16.407Z,7.53
2018-07-23T17:44:43.772Z,7.75
2018-07-23T17:47:11.044Z,7.20
2018-07-23T17:49:38.316Z,7.40
2018-07-23T17:52:05.668Z,7.12
2018-07-23T17:54:33.027Z,7.15
2018-07-23T17:57:00.381Z,7.47
2018-07-23T17:59:27.760Z,7.60
2018-07-23T18:01:55.053Z,7.70
2018-07-23T18:04:22.404Z,6.90
2018-07-23T18:06:49.709Z,7.03
2018-07-23T18:09:17.129Z,7.50
2018-07-23T18:11:44.453Z,7.28
2018-07-23T18:14:11.848Z,7.20
2018-07-23T18:16:39.411Z,6.92
2018-07-23T18:19:06.652Z,7.03
2018-07-23T18:21:33.879Z,7.42
2018-07-23T18:24:01.186Z,7.67
2018-07-23T18:26:28.591Z,7.70
2018-07-23T18:28:55.876Z,7.55
2018-07-23T18:31:23.202Z,7.87
2018-07-23T18:33:50.579Z,8.35
2018-07-23T18:36:18.191Z,7.65
2018-07-23T18:38:45.644Z,7.80
2018-07-23T18:41:12.802Z,7.78
2018-07-23T18:43:40.115Z,7.50
2018-07-23T18:46:08.996Z,7.50
2018-07-23T18:49:46.429Z,7.55
2018-07-23T18:52:14.564Z,7.50
2018-07-23T18:54:43.019Z,7.65
2018-07-23T18:57:10.463Z,7.55
2018-07-23T18:59:37.771Z,8.00
2018-07-23T19:02:06.876Z,7.95
2018-07-23T19:04:35.398Z,8.38
2018-07-23T19:07:02.672Z,8.78
2018-07-23T19:09:30.390Z,8.33
2018-07-23T19:11:58.351Z,8.55
2018-07-23T19:14:25.615Z,8.53
2018-07-23T19:16:53.908Z,8.58
2018-07-23T19:19:21.171Z,8.78
2018-07-23T19:21:48.440Z,9.20
2018-07-23T19:24:15.710Z,8.43
2018-07-23T19:26:43.455Z,9.03
2018-07-23T19:29:10.818Z,8.90
2018-07-23T19:31:38.409Z,9.78
2018-07-23T19:34:05.699Z,8.88
2018-07-23T19:36:32.994Z,9.58
2018-07-23T19:39:00.635Z,9.45
2018-07-23T19:41:28.589Z,9.50
2018-07-23T19:43:56.014Z,10.03
2018-07-23T19:46:23.455Z,9.95
2018-07-23T19:48:50.708Z,9.78
2018-07-23T19:51:17.998Z,10.00
2018-07-23T19:53:45.530Z,10.08
2018-07-23T19:56:12.795Z,9.95
2018-07-23T19:58:40.742Z,10.30
2018-07-23T20:01:08.000Z,11.12
2018-07-23T20:03:35.843Z,10.10
2018-07-23T20:06:03.123Z,11.08
2018-07-23T20:08:30.395Z,10.93
2018-07-23T20:10:57.755Z,10.20
2018-07-23T20:13:25.626Z,11.30
2018-07-23T20:15:53.384Z,11.20
2018-07-23T20:18:20.634Z,10.93
2018-07-23T20:20:47.955Z,11.05
2018-07-23T20:23:15.399Z,11.83
2018-07-23T20:25:43.079Z,11.63
2018-07-23T20:28:10.427Z,11.73
2018-07-23T20:30:37.712Z,11.78
2018-07-23T20:33:05.131Z,12.33
2018-07-23T20:35:32.465Z,11.75
2018-07-23T20:38:00.128Z,12.95
2018-07-23T20:40:27.379Z,12.25
2018-07-23T20:42:55.444Z,12.03
2018-07-23T20:45:22.764Z,12.58
2018-07-23T20:47:52.067Z,13.45
2018-07-23T20:50:19.427Z,13.62
2018-07-23T20:52:47.008Z,12.90
2018-07-23T20:55:15.917Z,13.20
2018-07-23T20:57:43.268Z,13.85
2018-07-23T21:00:10.498Z,13.53
2018-07-23T21:02:37.799Z,13.62
2018-07-23T21:05:05.222Z,14.60
2018-07-23T21:07:32.736Z,14.60
2018-07-23T21:10:00.018Z,14.78
2018-07-23T21:12:27.283Z,14.73
2018-07-23T21:14:54.741Z,14.68
2018-07-23T21:17:21.955Z,14.15
2018-07-23T21:19:49.296Z,14.63
2018-07-23T21:22:16.589Z,15.58
2018-07-23T21:24:43.798Z,15.60
2018-07-23T21:27:11.074Z,15.78
2018-07-23T21:29:38.339Z,15.32
2018-07-23T21:32:05.659Z,16.17
2018-07-23T21:34:32.917Z,16.55
2018-07-23T21:37:00.427Z,16.97
2018-07-23T21:39:27.693Z,15.80
2018-07-23T21:41:54.927Z,17.35
2018-07-23T21:44:22.182Z,16.90
2018-07-23T21:46:49.786Z,16.87
2018-07-23T21:49:17.035Z,17.30
2018-07-23T21:51:44.279Z,17.55
2018-07-23T21:54:11.748Z,17.57
2018-07-23T21:56:38.975Z,16.77
2018-07-23T21:59:06.244Z,17.45
2018-07-23T22:01:33.535Z,17.62
2018-07-23T22:04:00.778Z,18.27
2018-07-23T22:06:28.039Z,18.48
2018-07-23T22:08:55.780Z,18.48
2018-07-23T22:11:23.062Z,18.82
2018-07-23T22:13:50.291Z,18.57
2018-07-23T22:16:17.723Z,18.60
2018-07-23T22:18:45.104Z,18.52
2018-07-23T22:21:12.379Z,19.32
2018-07-23T22:23:39.642Z,19.75
2018-07-23T22:26:06.892Z,19.23
2018-07-23T22:28:34.311Z,18.23
2018-07-23T22:31:01.627Z,18.98
2018-07-23T22:33:29.667Z,19.37
2018-07-23T22:35:56.902Z,20.10
2018-07-23T22:38:24.231Z,19.82
2018-07-23T22:40:51.532Z,20.05
2018-07-23T22:43:19.119Z,19.70
2018-07-23T22:45:46.387Z,20.20
2018-07-23T22:48:13.636Z,19.48
2018-07-23T22:50:40.874Z,19.80
2018-07-23T22:53:08.190Z,20.55
2018-07-23T22:55:35.795Z,20.65
2018-07-23T22:58:03.323Z,19.98
2018-07-23T23:00:30.655Z,20.08
2018-07-23T23:02:57.934Z,20.62
2018-07-23T23:05:25.253Z,21.87
2018-07-23T23:07:52.495Z,21.20
2018-07-23T23:10:20.142Z,20.72
2018-07-23T23:12:47.691Z,20.55
2018-07-23T23:15:14.926Z,20.30
2018-07-23T23:17:42.182Z,20.88
2018-07-23T23:20:09.475Z,19.82
2018-07-23T23:22:36.908Z,20.40
2018-07-23T23:25:04.187Z,20.35
2018-07-23T23:27:31.472Z,20.05
2018-07-23T23:29:58.846Z,19.98
2018-07-23T23:32:26.103Z,19.95
2018-07-23T23:34:53.332Z,19.57
2018-07-23T23:37:20.910Z,20.20
2018-07-23T23:39:48.203Z,21.00
2018-07-23T23:42:15.422Z,20.97
2018-07-23T23:44:42.783Z,21.12
2018-07-23T23:47:10.020Z,20.52
2018-07-23T23:49:37.263Z,20.68
2018-07-23T23:52:04.565Z,20.02
2018-07-23T23:54:31.823Z,21.25
2018-07-23T23:56:59.086Z,21.23
2018-07-23T23:59:26.323Z,21.60
